createdAt,value
2022-10-11T00:46:06.686Z,59.80
2022-10-11T00:48:41.532Z,59.80
2022-10-11T00:51:18.287Z,59.80
2022-10-11T00:53:49.378Z,59.70
2022-10-11T00:56:24.777Z,59.90
2022-10-11T00:58:54.166Z,59.80
2022-10-11T01:45:39.057Z,59.40
2022-10-11T01:48:14.220Z,59.60
2022-10-11T01:50:47.516Z,59.70
2022-10-11T01:54:07.266Z,59.70
2022-10-11T01:57:06.348Z,59.60
2022-10-11T01:59:51.367Z,59.60
2022-10-11T02:46:42.404Z,59.60
2022-10-11T02:49:11.007Z,59.50
2022-10-11T02:51:39.733Z,59.50
2022-10-11T02:54:08.397Z,59.40
2022-10-11T02:56:36.748Z,59.40
2022-10-11T02:59:05.338Z,59.50
2022-10-11T03:45:54.788Z,59.40
2022-10-11T03:48:23.178Z,59.40
2022-10-11T03:50:51.381Z,59.40
2022-10-11T03:53:20.076Z,59.40
2022-10-11T03:55:54.561Z,59.40
2022-10-11T03:58:24.143Z,59.30
2022-10-11T04:32:26.972Z,59.20
2022-10-11T04:34:55.976Z,59.30
2022-10-11T04:37:24.119Z,59.30
2022-10-11T04:39:52.589Z,59.30
2022-10-11T04:42:21.177Z,59.30
2022-10-11T04:44:49.422Z,59.20
2022-10-11T04:47:18.032Z,59.40
2022-10-11T04:49:47.690Z,59.50
2022-10-11T04:52:15.851Z,59.40
2022-10-11T04:54:44.024Z,59.30
2022-10-11T04:57:12.142Z,59.40
2022-10-11T04:59:41.326Z,59.20
2022-10-11T05:02:09.574Z,59.10
2022-10-11T05:04:37.885Z,59.20
2022-10-11T05:07:07.575Z,59.20
2022-10-11T05:09:35.777Z,59.10
2022-10-11T05:12:04.382Z,59.20
2022-10-11T05:14:32.560Z,59.10
2022-10-11T05:17:00.937Z,59.20
2022-10-11T05:19:29.307Z,59.30
2022-10-11T05:21:57.457Z,61.40
2022-10-11T05:24:27.079Z,61.50
2022-10-11T05:26:58.642Z,62.00
2022-10-11T05:29:29.343Z,61.90
2022-10-11T05:31:57.702Z,61.60
2022-10-11T05:34:26.217Z,63.60
2022-10-11T05:36:56.393Z,63.00
2022-10-11T05:39:26.182Z,62.40
2022-10-11T05:41:54.751Z,62.20
2022-10-11T05:44:23.171Z,62.50
2022-10-11T05:46:52.198Z,62.00
2022-10-11T05:49:20.485Z,61.00
2022-10-11T05:51:48.855Z,60.60
2022-10-11T05:54:17.703Z,60.30
2022-10-11T05:56:47.487Z,60.20
2022-10-11T05:59:15.955Z,60.60
2022-10-11T06:01:44.562Z,60.70
2022-10-11T06:04:13.212Z,60.30
2022-10-11T06:06:41.980Z,60.60
2022-10-11T06:09:10.429Z,60.00
2022-10-11T06:11:41.358Z,59.60
2022-10-11T06:14:11.724Z,59.10
2022-10-11T06:16:40.300Z,59.30
2022-10-11T06:19:08.820Z,58.00
2022-10-11T06:21:38.370Z,57.90
2022-10-11T06:24:10.016Z,58.00
2022-10-11T06:26:38.450Z,58.20
2022-10-11T06:29:07.190Z,58.20
2022-10-11T06:31:36.998Z,58.30
2022-10-11T06:34:05.775Z,58.30
2022-10-11T06:36:34.283Z,58.50
2022-10-11T06:39:02.720Z,58.40
2022-10-11T06:41:32.002Z,58.40
2022-10-11T06:44:00.389Z,58.30
2022-10-11T06:46:31.964Z,58.30
2022-10-11T06:49:01.504Z,58.80
2022-10-11T06:51:30.262Z,58.30
2022-10-11T06:54:01.959Z,58.10
2022-10-11T06:56:32.494Z,58.00
2022-10-11T06:59:01.555Z,58.10
2022-10-11T07:01:29.964Z,58.00
2022-10-11T07:04:03.297Z,60.20
2022-10-11T07:06:33.026Z,60.20
2022-10-11T07:09:02.216Z,59.80
2022-10-11T07:11:31.273Z,58.00
2022-10-11T07:14:02.604Z,55.70
2022-10-11T07:16:31.225Z,55.50
2022-10-11T07:19:02.630Z,55.10
2022-10-11T07:21:33.320Z,55.10
2022-10-11T07:24:02.300Z,55.40
2022-10-11T07:26:37.490Z,55.50
2022-10-11T07:29:09.006Z,55.60
2022-10-11T07:31:38.841Z,55.60
2022-10-11T07:34:08.911Z,55.90
2022-10-11T07:36:37.812Z,56.00
2022-10-11T07:39:09.456Z,56.20
2022-10-11T07:41:43.161Z,57.00
2022-10-11T07:44:14.290Z,56.60
2022-10-11T07:46:42.941Z,56.90
2022-10-11T07:49:12.477Z,57.10
2022-10-11T07:51:41.131Z,56.80
2022-10-11T07:54:09.901Z,56.20
2022-10-11T07:56:39.930Z,56.30
2022-10-11T07:59:08.283Z,56.30
2022-10-11T08:01:36.562Z,56.50
2022-10-11T08:04:05.196Z,56.80
2022-10-11T08:06:36.596Z,56.30
2022-10-11T08:09:05.657Z,56.50
2022-10-11T08:11:36.602Z,56.50
2022-10-11T08:14:08.977Z,56.60
2022-10-11T08:16:37.844Z,56.70
2022-10-11T08:19:07.038Z,56.80
2022-10-11T08:21:36.645Z,57.00
2022-10-11T08:24:07.117Z,57.10
2022-10-11T08:26:36.134Z,57.10
2022-10-11T08:29:05.137Z,57.10
2022-10-11T08:31:35.123Z,57.70
2022-10-11T08:34:03.905Z,57.20
2022-10-11T08:36:32.061Z,57.30
2022-10-11T08:39:26.149Z,57.40
2022-10-11T08:41:59.800Z,57.10
2022-10-11T08:45:09.445Z,57.00
2022-10-11T08:47:34.826Z,56.80
2022-10-11T08:50:03.491Z,59.80
2022-10-11T08:52:43.593Z,59.80
2022-10-11T08:55:22.641Z,59.00
2022-10-11T08:57:56.088Z,59.50
2022-10-11T09:00:29.154Z,59.60
2022-10-11T09:03:09.241Z,59.70
2022-10-11T09:05:52.145Z,59.50
2022-10-11T09:08:27.394Z,59.30
2022-10-11T09:11:05.583Z,59.00
2022-10-11T09:13:58.447Z,58.60
2022-10-11T09:16:38.381Z,58.70
2022-10-11T09:19:50.355Z,58.30
2022-10-11T09:22:30.746Z,58.50
2022-10-11T09:25:14.837Z,58.60
2022-10-11T09:28:02.234Z,58.70
2022-10-11T09:30:32.360Z,58.80
2022-10-11T09:33:14.522Z,58.90
2022-10-11T09:35:47.715Z,58.90
2022-10-11T09:38:28.706Z,59.10
2022-10-11T09:41:10.727Z,58.80
2022-10-11T09:43:40.544Z,59.20
2022-10-11T09:46:21.990Z,59.00
2022-10-11T09:48:52.104Z,58.90
2022-10-11T09:51:25.861Z,58.90
2022-10-11T09:54:01.289Z,58.90
2022-10-11T09:56:36.687Z,58.70
2022-10-11T09:59:22.192Z,58.90
2022-10-11T10:02:07.569Z,58.80
2022-10-11T10:04:55.806Z,58.90
2022-10-11T10:07:25.107Z,58.90
2022-10-11T10:09:55.454Z,58.90
2022-10-11T10:12:29.178Z,58.90
2022-10-11T10:15:09.292Z,59.00
2022-10-11T10:17:40.291Z,58.70
2022-10-11T10:20:21.707Z,58.90
2022-10-11T10:22:51.161Z,58.80
2022-10-11T10:25:27.694Z,59.00
2022-10-11T10:42:11.412Z,58.90
2022-10-11T10:44:41.215Z,59.00
2022-10-11T10:47:18.115Z,59.10
2022-10-11T10:50:06.240Z,58.90
2022-10-11T10:53:06.137Z,59.00
2022-10-11T10:55:39.730Z,59.10
2022-10-11T10:58:26.744Z,59.10
2022-10-11T11:01:01.052Z,59.00
2022-10-11T11:03:45.812Z,59.10
2022-10-11T11:09:03.248Z,59.10
2022-10-11T11:10:35.304Z,59.10
2022-10-11T11:13:20.140Z,59.00
2022-10-11T11:15:57.549Z,58.70
2022-10-11T11:18:37.635Z,58.60
2022-10-11T11:21:30.466Z,58.70
2022-10-11T11:24:12.626Z,58.80
2022-10-11T11:26:47.907Z,58.90
2022-10-11T11:29:38.463Z,58.90
2022-10-11T11:32:21.410Z,59.00
2022-10-11T11:34:55.991Z,59.10
2022-10-11T11:37:29.995Z,59.20
2022-10-11T11:40:03.871Z,59.20
2022-10-11T11:42:42.019Z,59.10
2022-10-11T11:45:22.399Z,59.20
2022-10-11T11:48:00.837Z,59.10
2022-10-11T11:50:37.973Z,59.20
2022-10-11T11:53:16.185Z,59.20
2022-10-11T11:55:51.837Z,59.30
2022-10-11T11:58:33.792Z,59.30
2022-10-11T12:01:17.120Z,59.30
2022-10-11T12:03:49.537Z,59.20
2022-10-11T12:06:27.169Z,59.30
2022-10-11T12:09:04.440Z,59.30
2022-10-11T12:11:52.126Z,59.20
2022-10-11T12:14:38.887Z,59.70
2022-10-11T12:17:19.599Z,59.70
2022-10-11T12:20:15.681Z,59.80
2022-10-11T12:23:03.443Z,60.30
2022-10-11T12:25:43.277Z,60.40
2022-10-11T12:29:11.096Z,60.30
2022-10-11T12:31:43.734Z,60.80
2022-10-11T12:34:37.943Z,60.70
2022-10-11T12:37:51.375Z,60.70
2022-10-11T12:40:41.737Z,60.80
2022-10-11T12:43:33.510Z,60.70
2022-10-11T12:46:40.439Z,60.50
2022-10-11T12:49:29.041Z,60.70
2022-10-11T12:52:03.156Z,61.00
2022-10-11T12:54:54.383Z,62.50
2022-10-11T12:58:12.174Z,64.40
2022-10-11T13:01:04.794Z,67.20
2022-10-11T13:03:37.434Z,67.80
2022-10-11T13:06:17.384Z,69.70
2022-10-11T13:08:52.740Z,70.10
2022-10-11T13:11:28.995Z,75.60
2022-10-11T13:14:01.428Z,74.50
2022-10-11T13:16:45.793Z,90.90
2022-10-11T13:19:23.118Z,81.20
2022-10-11T13:21:56.258Z,81.50
2022-10-11T13:24:28.401Z,80.20
2022-10-11T13:26:58.311Z,77.90
2022-10-11T13:29:33.867Z,77.50
2022-10-11T13:32:07.636Z,77.00
2022-10-11T13:34:42.682Z,76.40
2022-10-11T13:37:19.346Z,76.40
2022-10-11T13:39:52.586Z,74.70
2022-10-11T13:42:28.621Z,74.30
2022-10-11T13:44:57.304Z,74.60
2022-10-11T13:47:29.425Z,73.40
2022-10-11T13:50:11.011Z,72.80
2022-10-11T13:52:55.930Z,72.10
2022-10-11T13:55:30.522Z,71.40
2022-10-11T13:58:03.140Z,70.90
2022-10-11T14:00:35.482Z,70.50
2022-10-11T14:03:15.820Z,70.60
2022-10-11T14:05:53.203Z,70.40
2022-10-11T14:08:28.050Z,69.90
2022-10-11T14:11:02.470Z,70.00
2022-10-11T14:13:38.965Z,70.20
2022-10-11T14:16:10.330Z,70.40
2022-10-11T14:18:47.735Z,70.30
2022-10-11T14:21:28.936Z,70.30
2022-10-11T14:23:59.650Z,69.80
2022-10-11T14:26:35.127Z,69.40
2022-10-11T14:29:08.005Z,69.30
2022-10-11T14:31:41.907Z,69.20
2022-10-11T14:34:19.664Z,69.00
2022-10-11T14:36:53.688Z,68.90
2022-10-11T14:39:25.121Z,68.90
2022-10-11T14:41:55.513Z,68.70
2022-10-11T14:44:25.326Z,68.70
2022-10-11T14:46:55.547Z,68.60
2022-10-11T14:49:27.551Z,66.10
2022-10-11T14:51:58.015Z,68.00
2022-10-11T14:54:28.567Z,66.60
2022-10-11T14:57:01.186Z,65.20
2022-10-11T14:59:34.733Z,64.70
2022-10-11T15:02:04.040Z,65.10
2022-10-11T15:04:32.508Z,65.70
2022-10-11T15:07:01.660Z,69.90
2022-10-11T15:09:30.813Z,67.00
2022-10-11T15:12:00.670Z,65.50
2022-10-11T15:14:29.047Z,66.30
2022-10-11T15:16:57.232Z,65.70
2022-10-11T15:19:27.017Z,66.10
2022-10-11T15:21:55.385Z,66.30
2022-10-11T15:24:23.747Z,65.30
2022-10-11T15:26:52.131Z,64.60
2022-10-11T15:29:24.051Z,62.20
2022-10-11T15:31:52.328Z,61.80
2022-10-11T15:34:20.862Z,62.40
2022-10-11T15:36:50.072Z,61.60
2022-10-11T15:39:30.550Z,62.70
2022-10-11T15:41:59.728Z,62.40
2022-10-11T15:44:30.079Z,61.50
2022-10-11T15:46:58.324Z,59.70
2022-10-11T15:49:26.531Z,59.70
2022-10-11T15:51:55.240Z,59.30
2022-10-11T18:01:29.419Z,61.60
2022-10-11T18:04:01.867Z,60.10
2022-10-11T18:06:34.212Z,60.50
2022-10-11T18:09:04.777Z,60.50
2022-10-11T18:11:34.028Z,60.60
2022-10-11T18:14:03.696Z,60.60
2022-10-11T18:16:44.339Z,60.60
2022-10-11T18:27:04.138Z,61.40
2022-10-11T18:29:36.562Z,61.70
2022-10-11T18:32:09.304Z,61.10
2022-10-11T18:34:38.725Z,61.00
2022-10-11T18:37:07.189Z,60.60
2022-10-11T18:39:36.018Z,60.60
2022-10-11T18:42:04.961Z,60.70
2022-10-11T18:44:38.767Z,60.20
2022-10-11T18:47:14.725Z,60.10
2022-10-11T18:49:46.438Z,60.10
2022-10-11T18:52:17.435Z,60.00
2022-10-11T18:54:45.965Z,59.90
2022-10-11T18:57:14.804Z,59.90
2022-10-11T18:59:50.150Z,59.90
2022-10-11T19:02:20.814Z,60.00
2022-10-11T19:04:52.507Z,59.90
2022-10-11T19:07:21.584Z,60.00
2022-10-11T19:09:55.044Z,59.60
2022-10-11T19:12:23.815Z,59.60
2022-10-11T19:14:51.978Z,59.00
2022-10-11T19:17:23.331Z,59.50
2022-10-11T19:19:52.122Z,59.40
2022-10-11T19:22:25.004Z,59.40
2022-10-11T19:24:55.425Z,59.40
2022-10-11T19:27:23.522Z,59.50
2022-10-11T19:29:51.822Z,59.50
2022-10-11T19:32:21.604Z,59.80
2022-10-11T19:34:53.728Z,59.70
2022-10-11T19:37:21.879Z,60.00
2022-10-11T19:39:49.898Z,60.30
2022-10-11T19:42:18.999Z,60.40
2022-10-11T19:44:47.146Z,60.60
2022-10-11T19:47:16.041Z,60.80
2022-10-11T19:49:51.285Z,60.70
2022-10-11T19:52:19.856Z,60.70
2022-10-11T19:54:47.970Z,61.00
2022-10-11T19:57:16.075Z,61.10
2022-10-11T19:59:44.676Z,60.80
2022-10-11T20:02:14.770Z,60.70
2022-10-11T20:04:52.740Z,60.70
2022-10-11T20:07:22.849Z,60.60
2022-10-11T20:09:51.064Z,62.30
2022-10-11T20:12:19.298Z,62.20
2022-10-11T20:14:47.384Z,61.40
2022-10-11T20:17:16.110Z,61.00
2022-10-11T20:19:44.264Z,62.80
2022-10-11T20:22:12.446Z,61.90
2022-10-11T20:24:41.922Z,61.30
2022-10-11T20:27:10.008Z,60.90
2022-10-11T20:29:40.091Z,61.30
2022-10-11T20:32:21.246Z,60.30
2022-10-11T20:34:51.407Z,60.20
2022-10-11T20:37:19.559Z,60.50
2022-10-11T20:39:49.044Z,60.70
2022-10-11T20:42:17.526Z,60.80
2022-10-11T20:44:47.499Z,62.50
2022-10-11T20:47:16.010Z,62.10
2022-10-11T20:49:44.257Z,61.50
2022-10-11T20:52:12.355Z,62.00
2022-10-11T20:54:52.519Z,61.90
2022-10-11T20:57:20.600Z,64.10
2022-10-11T20:59:49.480Z,65.40
2022-10-11T21:02:19.103Z,66.30
2022-10-11T21:04:47.377Z,66.30
2022-10-11T21:07:15.486Z,64.10
2022-10-11T21:09:43.721Z,64.30
2022-10-11T21:12:13.125Z,62.10
2022-10-11T21:14:41.188Z,58.80
2022-10-11T21:17:09.415Z,57.90
2022-10-11T21:19:38.233Z,56.80
2022-10-11T21:22:14.297Z,56.80
2022-10-11T21:24:43.689Z,57.20
2022-10-11T21:27:13.401Z,56.80
2022-10-11T21:29:41.842Z,57.50
2022-10-11T21:32:14.291Z,58.00
2022-10-11T21:34:42.707Z,58.30
2022-10-11T21:37:10.897Z,57.80
2022-10-11T21:39:38.960Z,57.90
2022-10-11T21:42:07.337Z,57.90
2022-10-11T21:44:37.677Z,58.30
2022-10-11T21:47:07.620Z,58.20
2022-10-11T21:49:37.236Z,58.10
2022-10-11T21:52:06.517Z,58.20
2022-10-11T21:54:35.125Z,58.40
2022-10-11T21:57:04.719Z,58.50
2022-10-11T21:59:32.941Z,58.60
2022-10-11T22:02:02.607Z,58.90
2022-10-11T22:04:30.945Z,59.30
2022-10-11T22:06:59.355Z,58.50
2022-10-11T22:09:29.726Z,58.60
2022-10-11T22:11:58.256Z,58.30
2022-10-11T22:14:26.889Z,57.90
2022-10-11T22:45:18.553Z,58.70
2022-10-11T22:47:46.864Z,58.70
2022-10-11T22:50:15.324Z,58.80
2022-10-11T22:52:43.615Z,58.60
2022-10-11T22:55:16.280Z,58.80
2022-10-11T22:57:47.909Z,58.90
2022-10-11T23:47:25.690Z,59.00
2022-10-11T23:49:54.090Z,58.60
2022-10-11T23:52:22.362Z,58.50
2022-10-11T23:54:51.227Z,58.60
2022-10-11T23:57:19.437Z,58.60
2022-10-11T23:59:48.047Z,58.70
